Time;durP1;ratioP1;P1;durP2;ratioP2;P2;SDS_P1;SDS_P2;PMS_P1;PMS_P2;Temp;Humidity;BMP_temperature;BMP_pressure;BME280_temperature;BME280_humidity;BME280_pressure;Samples;Min_cycle;Max_cycle;Signal;HPM_P1;HPM_P2
2023/05/06 00:01:50;;;;;;;5.22;2.28;;;;;;;24.47;39.86;94511.34;5023303;28;20136;-91
2023/05/06 00:04:16;;;;;;;6.10;2.45;;;;;;;24.14;40.28;94524.09;5023485;28;20035;-92
2023/05/06 00:06:42;;;;;;;5.60;2.50;;;;;;;24.05;40.08;94524.28;5023646;28;20028;-92
2023/05/06 00:09:08;;;;;;;7.03;2.65;;;;;;;23.96;40.37;94523.69;5022055;28;20078;-91
2023/05/06 00:11:33;;;;;;;2.85;2.25;;;;;;;23.93;40.36;94516.34;5039724;28;20029;-91
2023/05/06 00:13:59;;;;;;;4.13;2.20;;;;;;;24.39;39.79;94511.22;5023151;28;20131;-91
2023/05/06 00:16:24;;;;;;;3.70;2.20;;;;;;;24.62;39.29;94515.09;5039283;28;20462;-91
2023/05/06 00:18:50;;;;;;;6.40;2.30;;;;;;;24.76;39.34;94504.66;5022813;28;20040;-92
2023/05/06 00:21:15;;;;;;;3.47;2.17;;;;;;;24.27;39.17;94506.00;5023378;28;20458;-91
2023/05/06 00:23:40;;;;;;;5.50;2.20;;;;;;;24.12;40.01;94504.94;5023114;28;20082;-90
2023/05/06 00:26:06;;;;;;;3.80;2.10;;;;;;;24.46;40.45;94507.13;5023707;28;20082;-91
2023/05/06 00:28:32;;;;;;;4.57;2.47;;;;;;;24.42;39.53;94505.16;5057424;28;20059;-91
2023/05/06 00:30:57;;;;;;;3.90;2.03;;;;;;;24.41;39.67;94497.47;5023858;28;20043;-91
2023/05/06 00:33:23;;;;;;;2.85;2.30;;;;;;;24.38;40.35;94500.84;5023672;28;20377;-92
2023/05/06 00:35:48;;;;;;;3.15;2.17;;;;;;;24.37;40.26;94507.34;5023640;28;20024;-91
2023/05/06 00:38:18;;;;;;;3.88;2.67;;;;;;;24.33;39.58;94507.25;5023095;28;20032;-90
2023/05/06 00:40:44;;;;;;;6.03;2.35;;;;;;;23.85;41.19;94502.81;5023875;28;20040;-90
2023/05/06 00:43:10;;;;;;;4.13;2.45;;;;;;;23.72;41.52;94499.47;5039687;28;20349;-91
2023/05/06 00:45:35;;;;;;;3.55;2.60;;;;;;;23.82;41.15;94500.06;5039642;28;20330;-91
2023/05/06 00:48:02;;;;;;;3.50;2.38;;;;;;;23.97;41.13;94493.13;5039737;28;20063;-91
2023/05/06 00:50:28;;;;;;;3.63;2.17;;;;;;;24.05;40.81;94508.22;5039530;28;20044;-90
2023/05/06 00:52:56;;;;;;;4.20;2.60;;;;;;;24.23;40.79;94495.22;5023509;28;20045;-91
2023/05/06 00:55:21;;;;;;;4.80;2.38;;;;;;;23.79;40.59;94493.50;5023128;28;20032;-92
2023/05/06 00:57:50;;;;;;;3.67;2.42;;;;;;;23.78;41.20;94499.97;5022917;28;20408;-91
2023/05/06 01:00:16;;;;;;;3.70;2.35;;;;;;;23.97;40.58;94495.81;5023657;28;20055;-91
2023/05/06 01:02:42;;;;;;;3.60;2.20;;;;;;;23.91;40.73;94492.63;5023246;28;20040;-91
2023/05/06 01:05:08;;;;;;;3.65;2.38;;;;;;;23.92;41.34;94494.19;5039422;28;20024;-91
2023/05/06 01:08:05;;;;;;;3.97;2.25;;;;;;;23.98;40.73;94492.78;5057332;28;20029;-91
2023/05/06 01:10:35;;;;;;;7.97;2.33;;;;;;;23.23;40.79;94497.94;5023049;28;20123;-92
2023/05/06 01:13:16;;;;;;;3.90;2.45;;;;;;;23.75;40.03;94494.56;5018740;28;20029;-90
2023/05/06 01:15:46;;;;;;;6.10;2.05;;;;;;;23.77;40.23;94492.31;5036390;28;20029;-91
2023/05/06 01:18:21;;;;;;;3.28;2.30;;;;;;;23.69;41.45;94492.16;5018545;28;20163;-93
2023/05/06 01:20:50;;;;;;;4.50;2.22;;;;;;;23.53;39.99;94484.19;5018506;28;20061;-91
2023/05/06 01:23:16;;;;;;;4.90;2.30;;;;;;;23.77;39.04;94485.06;5018382;28;20036;-92
2023/05/06 01:25:42;;;;;;;2.33;1.65;;;;;;;23.85;39.02;94481.44;5002012;28;20026;-91
2023/05/06 01:28:10;;;;;;;3.83;1.88;;;;;;;24.03;39.14;94485.63;5034297;28;20451;-91
2023/05/06 01:30:44;;;;;;;5.32;1.95;;;;;;;24.25;39.02;94479.56;5018815;28;20057;-91
2023/05/06 01:33:17;;;;;;;5.67;1.97;;;;;;;24.04;39.04;94476.47;5018350;28;20040;-91
2023/05/06 01:35:49;;;;;;;3.63;1.92;;;;;;;23.72;39.25;94480.00;5018324;28;20103;-91
2023/05/06 01:38:34;;;;;;;4.07;2.20;;;;;;;24.11;38.92;94476.63;5001548;28;20108;-91
2023/05/06 01:41:00;;;;;;;4.15;1.83;;;;;;;23.89;39.82;94481.50;5018191;28;20167;-91
2023/05/06 01:43:29;;;;;;;3.55;1.85;;;;;;;23.87;38.88;94475.72;5017941;28;20029;-91
2023/05/06 01:45:55;;;;;;;4.53;2.30;;;;;;;23.62;38.83;94469.81;5018206;28;20106;-90
2023/05/06 01:48:29;;;;;;;4.40;2.05;;;;;;;24.13;37.90;94472.47;5017791;28;20068;-90
2023/05/06 01:50:55;;;;;;;4.60;2.10;;;;;;;23.73;39.41;94470.84;5017934;28;20032;-91
2023/05/06 01:53:21;;;;;;;3.30;1.95;;;;;;;23.73;38.26;94474.28;5001963;28;20135;-92
2023/05/06 01:55:47;;;;;;;3.28;1.77;;;;;;;23.82;38.96;94486.69;5001921;28;20120;-91
2023/05/06 01:58:13;;;;;;;2.97;2.00;;;;;;;23.59;38.71;94479.31;5001705;28;20030;-91
2023/05/06 02:00:38;;;;;;;3.97;1.98;;;;;;;23.68;40.06;94474.56;5017887;28;20035;-90
2023/05/06 02:03:04;;;;;;;4.53;2.10;;;;;;;23.73;39.51;94465.50;5001673;28;20037;-90
2023/05/06 02:05:34;;;;;;;5.25;1.92;;;;;;;24.07;40.52;94468.50;5017964;28;20036;-91
2023/05/06 02:08:00;;;;;;;3.17;1.90;;;;;;;23.47;40.06;94471.41;5018221;28;20024;-91
2023/05/06 02:10:25;;;;;;;2.55;2.00;;;;;;;23.62;39.91;94465.25;5001853;28;20021;-90
2023/05/06 02:12:50;;;;;;;2.30;1.80;;;;;;;23.62;39.14;94456.47;5001599;28;20382;-91
2023/05/06 02:15:16;;;;;;;5.88;2.30;;;;;;;23.69;39.42;94459.28;5017843;28;20032;-90
2023/05/06 02:17:42;;;;;;;5.90;2.15;;;;;;;23.22;39.78;94460.88;5001689;28;20028;-91
2023/05/06 02:20:10;;;;;;;3.55;1.80;;;;;;;23.66;39.50;94450.06;5001589;28;20032;-91
2023/05/06 02:22:36;;;;;;;3.70;2.03;;;;;;;23.81;39.28;94459.16;5018416;28;20044;-92
2023/05/06 02:25:02;;;;;;;3.80;2.05;;;;;;;23.70;39.10;94463.53;5001682;28;20025;-91
2023/05/06 02:27:28;;;;;;;7.55;2.30;;;;;;;23.60;38.80;94456.81;5002185;28;20698;-91
2023/05/06 02:29:53;;;;;;;2.83;2.10;;;;;;;23.75;38.94;94457.88;5017290;28;20056;-90
2023/05/06 02:32:19;;;;;;;2.47;1.70;;;;;;;23.72;40.37;94455.91;5003680;28;20060;-91
2023/05/06 02:34:44;;;;;;;3.00;2.30;;;;;;;23.57;41.09;94452.16;5005150;28;20021;-91
2023/05/06 02:37:10;;;;;;;4.78;2.55;;;;;;;23.40;40.68;94454.06;5019230;28;20029;-92
2023/05/06 02:39:35;;;;;;;3.00;2.13;;;;;;;23.58;40.48;94453.69;5025370;28;20338;-91
2023/05/06 02:42:01;;;;;;;3.17;2.15;;;;;;;23.88;39.23;94450.50;5041920;28;20075;-91
2023/05/06 02:44:27;;;;;;;3.85;1.90;;;;;;;22.82;40.39;94452.69;5042086;28;20346;-90
2023/05/06 02:46:52;;;;;;;3.08;2.00;;;;;;;23.16;40.31;94447.78;5025757;28;20025;-91
2023/05/06 02:49:18;;;;;;;4.28;2.30;;;;;;;23.43;40.51;94447.28;5041871;28;20052;-90
2023/05/06 02:51:43;;;;;;;5.45;1.98;;;;;;;23.51;39.95;94448.97;5025602;28;20025;-90
2023/05/06 02:54:08;;;;;;;2.20;1.90;;;;;;;23.52;39.59;94445.16;5025609;28;20082;-92
2023/05/06 02:56:34;;;;;;;3.40;2.08;;;;;;;23.61;38.62;94445.00;5025347;28;20074;-91
2023/05/06 02:59:00;;;;;;;3.33;2.25;;;;;;;23.34;38.16;94450.13;5025327;28;20060;-91
2023/05/06 03:01:25;;;;;;;2.75;2.05;;;;;;;23.23;38.57;94454.41;5025556;28;20435;-93
2023/05/06 03:03:51;;;;;;;2.70;2.05;;;;;;;24.00;37.42;94447.69;5025503;28;20032;-91
2023/05/06 03:06:16;;;;;;;3.92;1.70;;;;;;;24.08;37.29;94437.19;5025558;28;20021;-90
2023/05/06 03:08:42;;;;;;;2.42;1.63;;;;;;;24.01;37.24;94440.47;5041477;28;20438;-92
2023/05/06 03:11:07;;;;;;;1.85;1.52;;;;;;;24.01;37.30;94440.47;5041783;28;20342;-91
2023/05/06 03:13:33;;;;;;;5.93;2.33;;;;;;;23.83;37.55;94445.44;5041382;28;20027;-90
2023/05/06 03:15:58;;;;;;;4.22;2.10;;;;;;;23.86;37.88;94444.72;5041484;28;20032;-91
2023/05/06 03:18:24;;;;;;;3.17;2.10;;;;;;;23.58;38.92;94438.44;5024654;28;20080;-91
2023/05/06 03:20:49;;;;;;;5.88;2.10;;;;;;;23.69;39.21;94445.94;5025303;28;20120;-91
2023/05/06 03:23:15;;;;;;;3.47;2.22;;;;;;;23.63;38.03;94455.31;5024988;28;20025;-92
2023/05/06 03:25:40;;;;;;;4.32;2.20;;;;;;;23.59;38.20;94449.91;5041138;28;20343;-92
2023/05/06 03:28:06;;;;;;;3.33;2.33;;;;;;;23.44;39.29;94449.56;5024839;28;20032;-91
2023/05/06 03:30:31;;;;;;;7.05;2.00;;;;;;;23.41;39.63;94452.19;5024898;28;20021;-92
2023/05/06 03:32:59;;;;;;;6.90;2.40;;;;;;;23.65;39.32;94456.53;5024941;28;20079;-90
2023/05/06 03:35:25;;;;;;;5.78;1.92;;;;;;;23.47;38.38;94453.47;5024779;28;20075;-91
2023/05/06 03:37:50;;;;;;;4.45;2.35;;;;;;;23.20;40.98;94447.09;5024530;28;20020;-91
2023/05/06 03:40:16;;;;;;;2.70;2.20;;;;;;;23.37;39.05;94449.44;5024725;28;20021;-91
2023/05/06 03:42:41;;;;;;;3.03;2.20;;;;;;;23.40;40.21;94450.66;5024511;28;20128;-92
2023/05/06 03:45:07;;;;;;;3.88;2.00;;;;;;;23.43;39.24;94450.69;5024541;28;20032;-91
2023/05/06 03:47:32;;;;;;;3.25;2.17;;;;;;;23.45;38.96;94453.03;5024231;28;20408;-91
2023/05/06 03:49:58;;;;;;;4.45;2.17;;;;;;;23.54;38.62;94453.63;5022712;28;20355;-91
2023/05/06 03:52:23;;;;;;;3.80;2.03;;;;;;;23.51;38.38;94456.97;5021080;28;20025;-91
2023/05/06 03:54:49;;;;;;;3.92;2.17;;;;;;;23.46;38.52;94454.59;5004352;28;20347;-91
2023/05/06 03:57:14;;;;;;;3.20;1.80;;;;;;;23.51;38.55;94454.31;5024073;28;20032;-91
2023/05/06 03:59:40;;;;;;;6.78;2.30;;;;;;;23.49;39.49;94453.88;5023941;28;20031;-90
2023/05/06 04:02:05;;;;;;;3.10;2.30;;;;;;;23.39;38.77;94449.84;5024264;28;20442;-91
2023/05/06 04:04:31;;;;;;;4.25;2.30;;;;;;;23.50;38.96;94455.44;5024186;28;20021;-92
2023/05/06 04:07:03;;;;;;;4.85;2.20;;;;;;;23.96;39.07;94446.09;5058147;28;20025;-90
2023/05/06 04:09:31;;;;;;;6.10;2.33;;;;;;;23.96;38.58;94441.50;5040588;28;20040;-91
2023/05/06 04:11:56;;;;;;;4.63;2.00;;;;;;;23.77;38.36;94458.31;5020258;28;20083;-91
2023/05/06 04:14:22;;;;;;;5.60;2.22;;;;;;;23.64;38.57;94467.56;5004156;28;20025;-91
2023/05/06 04:16:47;;;;;;;2.50;2.15;;;;;;;23.56;38.93;94462.09;5004589;28;20447;-92
2023/05/06 04:19:13;;;;;;;2.40;1.92;;;;;;;23.57;39.16;94468.97;5003799;28;20033;-91
2023/05/06 04:21:38;;;;;;;6.75;2.42;;;;;;;23.70;38.98;94463.53;5020250;28;20029;-90
2023/05/06 04:24:04;;;;;;;2.20;2.00;;;;;;;24.01;38.55;94459.19;5003932;28;20026;-91
2023/05/06 04:26:30;;;;;;;6.13;2.60;;;;;;;23.99;40.00;94461.44;5004111;28;20124;-90
2023/05/06 04:28:55;;;;;;;5.40;2.17;;;;;;;23.63;39.37;94458.00;5003827;28;20029;-91
2023/05/06 04:31:22;;;;;;;2.53;2.05;;;;;;;23.95;39.40;94456.00;5003876;28;20033;-91
2023/05/06 04:33:47;;;;;;;3.97;2.35;;;;;;;24.15;39.37;94458.72;5020250;28;20033;-91
2023/05/06 04:36:13;;;;;;;5.18;2.80;;;;;;;24.12;39.52;94464.78;5020706;28;20034;-91
2023/05/06 04:38:38;;;;;;;4.90;2.58;;;;;;;24.13;39.26;94467.13;5019856;28;20355;-91
2023/05/06 04:41:04;;;;;;;3.00;2.22;;;;;;;24.25;39.88;94470.78;5020454;28;20025;-91
2023/05/06 04:43:30;;;;;;;4.18;2.58;;;;;;;24.42;40.34;94466.88;5020226;28;20029;-91
2023/05/06 04:45:56;;;;;;;6.32;2.47;;;;;;;24.10;39.15;94472.41;5003929;28;20033;-92
2023/05/06 04:48:22;;;;;;;7.45;2.50;;;;;;;24.67;38.86;94474.63;5004121;28;20079;-90
2023/05/06 04:50:48;;;;;;;3.83;2.42;;;;;;;24.75;40.70;94478.19;5019887;28;20039;-92
2023/05/06 04:53:14;;;;;;;3.88;2.40;;;;;;;24.28;41.04;94473.50;5003441;28;20040;-91
2023/05/06 04:55:40;;;;;;;5.03;2.72;;;;;;;24.35;41.82;94472.88;5003235;28;20030;-90
2023/05/06 04:58:05;;;;;;;3.30;2.47;;;;;;;24.12;42.17;94470.94;5003532;28;20069;-91
2023/05/06 05:00:31;;;;;;;3.50;2.47;;;;;;;24.01;40.86;94470.66;5019953;28;20038;-91
2023/05/06 05:02:56;;;;;;;3.22;2.33;;;;;;;24.16;40.70;94465.63;5019761;28;20040;-93
2023/05/06 05:05:22;;;;;;;4.78;2.28;;;;;;;24.86;40.47;94471.16;5003545;28;20033;-91
2023/05/06 05:07:48;;;;;;;4.72;2.75;;;;;;;24.98;40.09;94467.53;5003376;28;20083;-91
2023/05/06 05:10:13;;;;;;;3.40;2.45;;;;;;;25.22;39.65;94468.28;5019781;28;20028;-91
2023/05/06 05:12:39;;;;;;;8.98;2.38;;;;;;;24.98;39.27;94468.31;5019886;28;20033;-91
2023/05/06 05:15:05;;;;;;;3.88;2.60;;;;;;;25.05;40.10;94461.50;5019407;28;20129;-91
2023/05/06 05:17:30;;;;;;;4.63;2.92;;;;;;;24.90;41.50;94463.19;5003348;28;20029;-92
2023/05/06 05:19:56;;;;;;;3.17;2.58;;;;;;;25.08;41.59;94468.81;5002955;28;20033;-91
2023/05/06 05:22:21;;;;;;;5.03;2.85;;;;;;;25.22;41.77;94458.31;5003291;28;20111;-92
2023/05/06 05:24:46;;;;;;;2.90;2.38;;;;;;;25.58;40.33;94474.22;5019552;28;20037;-91
2023/05/06 05:27:12;;;;;;;3.33;2.40;;;;;;;25.99;40.44;94470.94;5003116;28;20029;-91
2023/05/06 05:29:37;;;;;;;6.18;2.63;;;;;;;26.33;40.50;94468.31;5002971;28;20029;-90
2023/05/06 05:32:03;;;;;;;3.25;2.50;;;;;;;26.60;40.26;94465.53;5003154;28;20029;-90
2023/05/06 05:34:29;;;;;;;2.90;2.10;;;;;;;26.97;39.80;94472.03;5003266;28;20025;-91
2023/05/06 05:36:55;;;;;;;6.35;2.72;;;;;;;26.77;39.65;94464.16;5002897;28;20025;-90
2023/05/06 05:39:20;;;;;;;3.90;2.40;;;;;;;26.92;39.68;94467.78;5018967;28;20036;-90
2023/05/06 05:41:46;;;;;;;3.33;2.28;;;;;;;27.10;39.21;94464.47;5019285;28;20029;-91
2023/05/06 05:44:11;;;;;;;4.72;2.47;;;;;;;27.09;38.25;94466.41;5019359;28;20029;-91
2023/05/06 05:46:37;;;;;;;3.55;2.17;;;;;;;27.33;38.10;94466.19;5002972;28;20034;-91
2023/05/06 05:49:02;;;;;;;4.75;2.40;;;;;;;27.49;38.07;94474.75;5018949;28;20025;-91
2023/05/06 05:51:28;;;;;;;4.70;2.53;;;;;;;27.49;37.65;94468.63;5003112;28;20124;-93
2023/05/06 05:53:53;;;;;;;3.28;2.20;;;;;;;27.43;37.29;94465.50;5003859;28;20029;-93
2023/05/06 05:56:18;;;;;;;2.90;2.05;;;;;;;27.60;37.68;94472.16;5003612;28;20431;-95
2023/05/06 05:58:46;;;;;;;7.63;2.70;;;;;;;27.09;39.73;94468.28;5003348;28;20029;-95
2023/05/06 06:01:11;;;;;;;3.17;2.20;;;;;;;27.33;38.74;94466.97;5003544;28;20029;-93
2023/05/06 06:03:37;;;;;;;4.68;2.50;;;;;;;27.71;38.24;94468.78;5003392;28;20056;-93
2023/05/06 06:06:05;;;;;;;4.18;2.28;;;;;;;27.54;38.06;94476.34;5005278;28;20029;-95
2023/05/06 06:08:32;;;;;;;5.32;2.10;;;;;;;27.57;38.01;94464.09;5007492;28;20083;-92
2023/05/06 06:10:57;;;;;;;3.00;2.22;;;;;;;27.81;38.23;94462.69;5007343;28;20041;-93
2023/05/06 06:13:22;;;;;;;2.58;2.13;;;;;;;27.95;37.86;94470.06;5023725;28;20030;-94
2023/05/06 06:19:10;;;;;;;3.85;2.42;;;;;;;28.07;38.21;94460.91;5040715;28;20087;-96
2023/05/06 06:21:35;;;;;;;3.03;2.10;;;;;;;27.99;37.61;94468.16;5006911;28;20382;-94
2023/05/06 06:24:01;;;;;;;4.57;2.30;;;;;;;28.17;37.26;94470.19;5023372;28;20083;-95
2023/05/06 06:26:26;;;;;;;5.40;2.58;;;;;;;28.29;36.82;94467.16;5007208;28;20025;-94
2023/05/06 06:28:52;;;;;;;3.03;1.83;;;;;;;28.48;36.48;94471.47;5006825;28;20018;-94
2023/05/06 06:31:17;;;;;;;6.10;2.15;;;;;;;28.74;36.46;94466.88;5006872;28;20132;-94
2023/05/06 06:33:43;;;;;;;2.33;2.00;;;;;;;29.00;37.47;94461.56;5023006;28;20423;-94
2023/05/06 06:36:09;;;;;;;2.72;2.00;;;;;;;29.05;37.29;94464.66;5006707;28;20049;-93
2023/05/06 06:38:34;;;;;;;3.17;2.08;;;;;;;28.94;37.06;94463.88;5023017;28;20079;-94
2023/05/06 06:41:00;;;;;;;6.32;2.22;;;;;;;28.79;36.72;94469.22;5006622;28;20032;-96
2023/05/06 06:43:25;;;;;;;6.60;2.10;;;;;;;28.89;36.49;94475.03;5006874;28;20033;-93
2023/05/06 06:45:51;;;;;;;3.60;2.30;;;;;;;28.37;37.48;94465.28;5006905;28;20035;-92
2023/05/06 06:48:16;;;;;;;2.67;2.00;;;;;;;28.54;36.55;94461.06;5022560;28;20043;-93
2023/05/06 06:50:42;;;;;;;4.10;2.00;;;;;;;28.65;36.78;94472.66;5006237;28;20462;-93
2023/05/06 06:53:08;;;;;;;2.53;1.90;;;;;;;28.99;36.11;94470.81;5006073;28;20053;-93
2023/05/06 06:55:34;;;;;;;3.85;2.30;;;;;;;28.74;36.71;94472.28;5006129;28;20028;-93
2023/05/06 06:57:59;;;;;;;2.35;1.90;;;;;;;28.78;36.82;94467.69;5006223;28;20431;-93
2023/05/06 07:00:27;;;;;;;2.63;1.95;;;;;;;28.83;36.56;94474.63;5006399;28;20083;-94
2023/05/06 07:02:52;;;;;;;3.53;2.17;;;;;;;28.89;36.41;94465.03;5022727;28;20026;-93
2023/05/06 07:05:18;;;;;;;5.22;2.63;;;;;;;28.63;37.63;94471.50;5006112;28;20343;-94
2023/05/06 07:07:44;;;;;;;3.53;2.13;;;;;;;29.04;37.08;94475.81;5006245;28;20032;-94
2023/05/06 07:10:09;;;;;;;4.72;2.20;;;;;;;28.72;37.81;94468.44;5005903;28;20025;-94
2023/05/06 07:12:35;;;;;;;3.83;1.98;;;;;;;29.33;36.73;94479.28;5005850;28;20168;-93
2023/05/06 07:15:05;;;;;;;3.75;2.17;;;;;;;29.46;36.63;94460.03;5006173;28;20025;-93
2023/05/06 07:17:31;;;;;;;3.80;2.40;;;;;;;29.24;36.45;94478.91;5006177;28;20083;-93
2023/05/06 07:19:57;;;;;;;3.40;2.00;;;;;;;29.16;36.98;94470.06;5022373;28;20029;-93
2023/05/06 07:22:22;;;;;;;8.52;2.10;;;;;;;29.56;36.60;94461.19;5005814;28;20025;-92
2023/05/06 07:24:48;;;;;;;3.90;2.50;;;;;;;29.38;37.06;94475.44;5005801;28;20025;-93
2023/05/06 07:27:14;;;;;;;2.38;1.90;;;;;;;29.52;36.49;94468.50;5022129;28;20033;-94
2023/05/06 07:29:40;;;;;;;7.82;2.40;;;;;;;29.74;36.56;94475.44;5005551;28;20075;-92
2023/05/06 07:32:05;;;;;;;4.57;2.53;;;;;;;29.95;37.29;94473.81;5005636;28;20031;-92
2023/05/06 07:34:32;;;;;;;4.85;2.03;;;;;;;29.62;38.08;94465.78;5021590;28;20048;-93
2023/05/06 07:36:58;;;;;;;3.63;2.22;;;;;;;29.89;37.18;94470.00;5005711;28;20062;-92
2023/05/06 07:39:24;;;;;;;3.40;2.42;;;;;;;30.22;37.25;94476.09;5005244;28;20061;-93
2023/05/06 07:41:50;;;;;;;3.30;2.45;;;;;;;30.22;37.52;94478.78;5005244;28;20025;-92
2023/05/06 07:44:15;;;;;;;5.18;2.08;;;;;;;30.31;37.48;94472.97;5005488;28;20038;-92
2023/05/06 07:46:41;;;;;;;3.13;2.30;;;;;;;30.32;38.02;94475.28;5005121;28;20091;-91
2023/05/06 07:49:06;;;;;;;4.25;2.65;;;;;;;30.04;37.87;94476.13;5021490;28;20033;-92
2023/05/06 07:51:32;;;;;;;7.35;2.97;;;;;;;30.55;37.68;94484.81;5005029;28;20030;-93
2023/05/06 07:53:57;;;;;;;4.93;2.70;;;;;;;30.99;37.42;94479.19;5005119;28;20058;-91
2023/05/06 07:56:23;;;;;;;8.75;4.70;;;;;;;30.98;35.26;94475.72;5005016;28;20030;-92
2023/05/06 07:58:48;;;;;;;7.00;4.70;;;;;;;30.50;36.47;94481.78;5004664;28;20435;-94
2023/05/06 08:01:15;;;;;;;7.35;5.53;;;;;;;30.54;36.71;94485.97;5021234;28;20435;-91
2023/05/06 08:03:40;;;;;;;11.63;6.68;;;;;;;30.70;37.06;94488.25;5021033;28;20111;-92
2023/05/06 08:06:06;;;;;;;7.93;5.68;;;;;;;30.96;36.63;94482.69;5004820;28;20053;-92
2023/05/06 08:08:32;;;;;;;6.22;4.40;;;;;;;31.24;35.23;94497.19;5005116;28;20083;-91
2023/05/06 08:10:58;;;;;;;11.30;5.38;;;;;;;31.31;35.28;94486.31;5021436;28;20037;-93
2023/05/06 08:13:24;;;;;;;12.05;7.00;;;;;;;30.84;35.57;94492.03;5004521;28;20033;-92
2023/05/06 08:15:50;;;;;;;10.57;7.28;;;;;;;30.93;35.20;94489.66;5004453;28;20029;-91
2023/05/06 08:18:15;;;;;;;9.45;6.10;;;;;;;31.34;34.58;94493.66;5020436;28;20109;-93
2023/05/06 08:20:41;;;;;;;8.77;6.68;;;;;;;30.96;34.84;94494.28;5020847;28;20099;-94
2023/05/06 08:23:06;;;;;;;13.88;7.90;;;;;;;30.93;35.21;94486.97;5020592;28;20029;-92
2023/05/06 08:25:31;;;;;;;8.18;6.32;;;;;;;31.46;34.47;94489.66;5004317;28;20336;-93
2023/05/06 08:29:13;;;;;;;9.80;6.10;;;;;;;31.91;34.69;94483.47;4982957;28;20101;-93
2023/05/06 08:31:47;;;;;;;;;;;;;;;32.08;34.11;94489.09;4986114;28;20507;-95
2023/05/06 08:34:33;;;;;;;10.55;5.80;;;;;;;31.24;36.05;94479.03;4975263;28;19909;-92
2023/05/06 08:37:05;;;;;;;9.05;6.57;;;;;;;30.78;36.19;94482.81;5056035;23;20058;-96
2023/05/06 08:39:44;;;;;;;8.27;5.57;;;;;;;31.10;36.93;94484.53;5223669;23;20043;-96
2023/05/06 08:42:12;;;;;;;7.63;4.60;;;;;;;31.18;36.54;94475.16;4997844;28;20038;-95
2023/05/06 08:44:43;;;;;;;7.68;5.93;;;;;;;30.31;36.14;94472.97;5008552;28;20132;-96
2023/05/06 08:47:09;;;;;;;8.23;4.88;;;;;;;31.15;35.46;94475.97;4990552;28;20030;-96
2023/05/06 08:57:20;;;;;;;11.05;4.45;;;;;;;31.03;37.25;94480.69;5026871;28;20038;-95
2023/05/06 09:00:09;;;;;;;7.10;4.45;;;;;;;31.04;36.62;94492.28;4997613;28;20041;-95
2023/05/06 09:12:43;;;;;;;8.68;4.78;;;;;;;31.09;36.99;94499.97;5085452;23;20111;-94
2023/05/06 09:15:11;;;;;;;5.43;3.83;;;;;;;31.79;35.78;94494.81;5017040;28;20029;-96
2023/05/06 09:17:46;;;;;;;5.45;3.67;;;;;;;31.23;37.12;94490.25;5030709;28;20033;-95
2023/05/06 09:20:13;;;;;;;6.60;4.32;;;;;;;31.24;36.04;94497.19;5044556;28;20052;-94
2023/05/06 09:23:00;;;;;;;;;;;;;;;;;;;;;
2023/05/06 09:25:26;;;;;;;7.90;3.50;;;;;;;31.26;36.70;94492.16;5017913;28;20129;-94
2023/05/06 09:28:05;;;;;;;5.72;3.78;;;;;;;32.10;35.39;94486.75;5020997;28;20033;-94
2023/05/06 09:30:30;;;;;;;8.02;4.07;;;;;;;31.41;35.75;94482.00;5005343;28;20025;-95
2023/05/06 09:32:56;;;;;;;4.70;3.13;;;;;;;31.33;37.44;94481.28;5005183;28;20040;-95
2023/05/06 09:35:27;;;;;;;5.55;3.88;;;;;;;31.20;36.36;94480.94;5004718;28;20141;-94
2023/05/06 09:37:52;;;;;;;9.55;4.03;;;;;;;31.40;36.43;94491.28;5004956;28;20037;-94
2023/05/06 09:40:18;;;;;;;5.55;3.97;;;;;;;31.43;35.62;94490.47;5003327;28;20034;-94
2023/05/06 09:42:43;;;;;;;11.02;3.67;;;;;;;32.21;35.15;94490.13;5003630;28;20025;-93
2023/05/06 09:45:09;;;;;;;4.75;3.50;;;;;;;31.58;36.35;94486.47;5003519;28;20029;-93
2023/05/06 09:47:34;;;;;;;4.25;3.10;;;;;;;31.35;35.05;94486.28;5003341;28;20316;-93
2023/05/06 09:50:01;;;;;;;4.32;2.88;;;;;;;31.35;35.17;94494.41;5003187;28;20025;-93
2023/05/06 09:52:27;;;;;;;7.50;2.88;;;;;;;31.58;36.50;94493.84;5003450;28;20029;-93
2023/05/06 09:54:53;;;;;;;6.07;3.42;;;;;;;31.66;35.55;94498.00;5003668;28;20080;-93
2023/05/06 09:57:21;;;;;;;5.75;3.30;;;;;;;31.86;34.75;94487.38;5003193;28;20025;-91
2023/05/06 09:59:46;;;;;;;5.75;3.65;;;;;;;31.43;35.89;94493.97;5019382;28;20091;-92
2023/05/06 10:02:12;;;;;;;7.22;3.53;;;;;;;31.21;36.88;94492.56;5019425;28;20033;-94
2023/05/06 10:27:54;;;;;;;7.10;4.35;;;;;;;30.83;36.78;94468.88;5833232;23;20314;-88
2023/05/06 10:30:20;;;;;;;5.22;3.75;;;;;;;31.41;35.91;94469.22;5035010;28;20072;-85
2023/05/06 10:32:45;;;;;;;10.70;4.15;;;;;;;31.15;36.97;94471.34;5018688;28;20357;-86
2023/05/06 10:35:19;;;;;;;5.75;4.22;;;;;;;31.72;36.01;94461.22;5018587;28;20426;-85
2023/05/06 10:37:46;;;;;;;8.65;3.60;;;;;;;31.40;37.30;94467.66;5018354;28;20025;-86
2023/05/06 10:40:12;;;;;;;5.78;4.60;;;;;;;29.96;38.64;94467.25;5035182;28;20036;-87
2023/05/06 10:42:38;;;;;;;8.35;5.00;;;;;;;30.12;37.92;94468.78;5035191;28;20041;-85
2023/05/06 10:45:04;;;;;;;6.60;4.78;;;;;;;31.26;38.54;94468.56;5034899;28;20036;-86
2023/05/06 10:47:55;;;;;;;7.53;4.85;;;;;;;31.25;37.30;94466.25;5034829;28;20029;-86
2023/05/06 10:50:22;;;;;;;7.60;4.72;;;;;;;31.80;36.04;94466.56;5035970;28;20057;-86
2023/05/06 10:52:54;;;;;;;7.25;5.05;;;;;;;30.64;37.62;94467.44;5036121;28;20029;-86
2023/05/06 10:55:46;;;;;;;9.07;4.18;;;;;;;32.23;37.28;94468.03;5038273;28;20033;-86
2023/05/06 10:58:13;;;;;;;8.25;5.43;;;;;;;31.83;36.72;94457.63;5034029;28;20327;-86
2023/05/06 11:00:39;;;;;;;9.13;5.13;;;;;;;31.97;36.56;94454.75;5038077;28;20036;-86
2023/05/06 11:03:07;;;;;;;5.75;4.72;;;;;;;32.41;36.34;94454.28;5022011;28;20030;-86
2023/05/06 11:05:52;;;;;;;9.48;5.90;;;;;;;31.85;35.38;94442.53;5021578;28;20353;-86
2023/05/06 11:08:23;;;;;;;7.03;4.32;;;;;;;32.34;35.27;94449.72;5020699;28;20044;-86
2023/05/06 11:10:48;;;;;;;7.18;5.05;;;;;;;32.06;37.47;94446.16;5018193;28;20037;-84
2023/05/06 11:13:18;;;;;;;11.45;6.28;;;;;;;32.22;37.05;94437.44;5019620;28;20320;-85
2023/05/06 11:15:45;;;;;;;9.18;6.35;;;;;;;31.38;36.65;94453.03;5019269;28;20439;-85
2023/05/06 11:18:30;;;;;;;8.80;6.20;;;;;;;31.88;36.49;94449.84;5019197;28;20038;-85
2023/05/06 11:20:59;;;;;;;8.90;5.15;;;;;;;31.03;37.30;94434.69;5019545;28;20033;-85
2023/05/06 11:23:45;;;;;;;8.93;6.10;;;;;;;31.26;37.21;94440.72;5018258;28;20033;-84
2023/05/06 11:26:12;;;;;;;12.75;6.57;;;;;;;31.01;38.09;94444.41;5019078;28;20076;-85
2023/05/06 11:28:49;;;;;;;10.10;6.05;;;;;;;31.56;36.30;94442.78;5017393;28;20354;-85
2023/05/06 11:31:14;;;;;;;11.35;6.85;;;;;;;30.44;37.89;94440.88;5017919;28;20116;-86
2023/05/06 11:33:51;;;;;;;16.00;9.02;;;;;;;31.10;37.90;94443.94;5017887;28;20389;-86
2023/05/06 11:36:18;;;;;;;10.20;6.25;;;;;;;32.35;36.82;94447.78;5018117;28;20045;-85
2023/05/06 11:38:45;;;;;;;12.75;7.15;;;;;;;31.36;37.66;94450.69;5006226;28;20044;-85
2023/05/06 11:41:11;;;;;;;12.32;7.32;;;;;;;31.79;36.81;94448.78;5016524;28;20037;-85
2023/05/06 11:43:37;;;;;;;8.25;6.32;;;;;;;31.99;36.64;94441.59;5019140;28;20040;-85
2023/05/06 11:46:02;;;;;;;8.70;6.10;;;;;;;32.80;36.54;94444.84;5017604;28;20034;-84
2023/05/06 11:48:28;;;;;;;15.07;7.60;;;;;;;31.94;37.25;94441.28;5017097;28;20037;-86
2023/05/06 11:50:54;;;;;;;9.60;5.80;;;;;;;32.68;35.37;94445.41;5018884;28;20084;-86
2023/05/06 11:53:21;;;;;;;8.93;6.03;;;;;;;32.49;36.27;94449.53;5017472;28;20036;-86
2023/05/06 11:55:48;;;;;;;10.75;7.53;;;;;;;31.44;37.09;94444.06;5014201;28;20430;-86
2023/05/06 11:58:15;;;;;;;10.32;7.40;;;;;;;32.56;36.51;94441.31;5017313;28;20430;-86
2023/05/06 12:01:01;;;;;;;7.35;5.55;;;;;;;33.11;35.65;94438.59;5025204;28;20034;-85
2023/05/06 12:03:27;;;;;;;10.52;6.93;;;;;;;31.83;38.02;94434.03;5017197;28;20026;-85
2023/05/06 12:05:53;;;;;;;13.65;6.78;;;;;;;31.68;36.77;94438.78;5000980;28;20069;-85
2023/05/06 12:08:24;;;;;;;164.73;95.25;;;;;;;33.37;35.54;94437.00;5005995;28;20394;-85
2023/05/06 12:11:01;;;;;;;24.38;15.48;;;;;;;33.93;34.20;94427.47;5018396;28;20030;-87
2023/05/06 12:13:28;;;;;;;10.07;6.78;;;;;;;32.88;35.35;94431.19;5017723;28;20032;-87
2023/05/06 12:15:54;;;;;;;9.20;6.35;;;;;;;33.58;34.95;94435.13;5001032;28;20034;-88
2023/05/06 12:18:20;;;;;;;9.07;5.82;;;;;;;33.84;34.16;94428.03;5016841;28;20041;-87
2023/05/06 12:20:46;;;;;;;11.20;5.50;;;;;;;34.14;34.42;94422.06;5036867;28;20056;-91